Flight Track Log - Related Links

Times and Time Zones

All times are in EDT time to prevent confusion due to time zone crossing. See the JUS327 flight status page for this flight to view local times or setup timezone preferences in your user account.

Time Position Orientation Groundspeed Altitude Reporting Facility
EDT Latitude Longitude Course Direction KTS MPH feet Rate Location/Type
Fri 08:59:22 PM 38.8636 -97.6586 349° North 194 223 4,200  Level Kansas City Center
Fri 09:00:24 PM 38.8450 -97.7328 252° West 236 272 6,500 2,683 Climbing Kansas City Center
Fri 09:01:25 PM 38.8150 -97.8286 248° West 274 315 9,700 2,732 Climbing Kansas City Center
Fri 09:02:00 PM 38.5686 -98.4101 250° West  Level FlightAware Approximate
Fri 09:02:27 PM 38.7856 -97.9308 250° West 311 358 12,100  Level Kansas City Center
Fri 09:03:00 PM 38.5333 -98.5375 270° West  Level FlightAware Approximate
Fri 09:03:29 PM 38.7550 -98.0419 251° West 330 380 15,200  Level Kansas City Center
Fri 09:04:30 PM 38.7208 -98.1542 249° West 339 390 17,800 2,537 Climbing Kansas City Center
Fri 09:05:32 PM 38.6869 -98.2697 249° West 347 399 20,400 2,419 Climbing Kansas City Center
Fri 09:06:34 PM 38.6422 -98.4147 248° West 366 421 22,800 2,195 Climbing Kansas City Center
Fri 09:07:35 PM 38.6075 -98.5431 251° West 380 437 24,900 1,902 Climbing Kansas City Center
Fri 09:08:37 PM 38.5692 -98.6731 249° West 390 449 26,700 1,645 Climbing Kansas City Center
Fri 09:09:39 PM 38.5286 -98.8072 249° West 404 465 28,300 1,561 Climbing Kansas City Center
Fri 09:10:40 PM 38.4864 -98.9450 249° West 414 476 29,900 1,463 Climbing Kansas City Center
Fri 09:11:42 PM 38.4431 -99.0861 249° West 425 489 31,300 1,258 Climbing Kansas City Center
Fri 09:12:44 PM 38.3992 -99.2294 249° West 433 498 32,500 1,220 Climbing Kansas City Center
Fri 09:13:45 PM 38.3453 -99.4033 248° West 439 505 33,800 732 Climbing Kansas City Center
Fri 09:14:47 PM 38.3008 -99.5514 249° West 443 510 34,000 98 Climbing Kansas City Center
Fri 09:15:48 PM 38.2553 -99.6889 247° West 441 507 34,000  Level Kansas City Center
Fri 09:16:50 PM 38.2033 -99.8483 248° West 439 505 34,000  Level Kansas City Center
Fri 09:17:52 PM 38.1611 -99.9850 249° West 436 502 34,000  Level Kansas City Center
Fri 09:18:53 PM 38.1122 -100.1436 249° West 434 499 34,000  Level Kansas City Center
Fri 09:19:55 PM 38.0681 -100.2789 248° West 433 498 34,000  Level Kansas City Center
Fri 09:20:57 PM 38.0242 -100.4139 248° West 433 498 34,000  Level Kansas City Center
Fri 09:21:58 PM 37.9722 -100.5725 247° West 436 502 34,000  Level Kansas City Center
Fri 09:23:00 PM 37.9281 -100.7081 248° West 436 502 34,000  Level Kansas City Center
Fri 09:24:01 PM 37.8633 -100.8589 242° Southwest 440 506 34,000  Level Kansas City Center
Fri 09:25:03 PM 37.8000 -100.9822 237° Southwest 443 510 34,000  Level Kansas City Center
Fri 09:26:05 PM 37.7253 -101.1297 237° Southwest 444 511 34,000  Level Kansas City Center
Fri 09:27:06 PM 37.6656 -101.2533 239° Southwest 445 512 34,000  Level Kansas City Center
Fri 09:28:08 PM 37.5944 -101.4036 239° Southwest 447 514 34,000  Level Kansas City Center
Fri 09:29:09 PM 37.5333 -101.5317 239° Southwest 448 516 34,000  Level Kansas City Center
Fri 09:30:11 PM 37.4564 -101.6758 236° Southwest 445 512 34,000  Level Kansas City Center
Fri 09:31:13 PM 37.3947 -101.8042 239° Southwest 448 516 34,000  Level Kansas City Center
Fri 09:31:51 PM 37.3558 -101.8919 241° Southwest 448 516 34,000  Level Albuquerque Center
Fri 09:32:52 PM 37.2839 -102.0406 239° Southwest 448 516 34,000  Level Albuquerque Center
Fri 09:33:53 PM 37.2175 -102.1664 237° Southwest 450 518 34,000  Level Albuquerque Center
Fri 09:34:55 PM 37.1550 -102.2886 237° Southwest 450 518 34,000  Level Albuquerque Center
Fri 09:35:56 PM 37.0778 -102.4417 238° Southwest 453 521 34,000  Level Albuquerque Center
Fri 09:36:57 PM 37.0153 -102.5669 238° Southwest 454 522 34,000  Level Albuquerque Center
Fri 09:37:58 PM 36.9381 -102.7153 237° Southwest 455 524 34,000  Level Albuquerque Center
Fri 09:38:59 PM 36.8711 -102.8442 237° Southwest 458 527 34,000  Level Albuquerque Center
Fri 09:40:01 PM 36.8036 -102.9717 237° Southwest 460 529 34,000  Level Albuquerque Center
Fri 09:41:02 PM 36.7261 -103.1203 237° Southwest 458 527 34,000  Level Albuquerque Center
Fri 09:42:03 PM 36.6597 -103.2483 237° Southwest 458 527 34,000  Level Albuquerque Center
Fri 09:43:04 PM 36.5931 -103.3764 237° Southwest 457 526 34,000  Level Albuquerque Center
Fri 09:44:05 PM 36.5219 -103.5097 236° Southwest 459 528 34,000  Level Albuquerque Center
Fri 09:45:07 PM 36.4511 -103.6431 237° Southwest 458 527 34,000  Level Albuquerque Center
Fri 09:46:08 PM 36.3686 -103.7950 236° Southwest 454 522 34,000  Level Albuquerque Center
Fri 09:47:09 PM 36.2975 -103.9278 236° Southwest 457 526 34,000  Level Albuquerque Center
Fri 09:48:10 PM 36.2269 -104.0594 236° Southwest 456 525 34,000  Level Albuquerque Center
Fri 09:49:11 PM 36.1569 -104.1886 236° Southwest 452 520 34,000  Level Albuquerque Center
Fri 09:50:12 PM 36.0858 -104.3181 236° Southwest 452 520 34,000  Level Albuquerque Center
Fri 09:51:13 PM 36.0156 -104.4469 236° Southwest 451 519 34,000  Level Albuquerque Center
Fri 09:52:14 PM 35.9447 -104.5750 236° Southwest 451 519 34,000  Level Albuquerque Center
Fri 09:53:16 PM 35.8725 -104.7006 235° Southwest 449 517 34,000  Level Albuquerque Center
Fri 09:54:17 PM 35.8006 -104.8314 236° Southwest 455 524 34,000  Level Albuquerque Center
Fri 09:55:18 PM 35.7317 -104.9603 237° Southwest 452 520 34,000  Level Albuquerque Center
Fri 09:56:19 PM 35.6619 -105.0881 236° Southwest 449 517 34,000  Level Albuquerque Center
Fri 09:57:20 PM 35.5878 -105.2181 235° Southwest 458 527 34,000  Level Albuquerque Center
Fri 09:58:21 PM 35.5169 -105.3458 236° Southwest 455 524 34,000  Level Albuquerque Center
Fri 09:59:22 PM 35.4469 -105.4736 236° Southwest 449 517 34,000  Level Albuquerque Center
Fri 10:00:24 PM 35.3622 -105.6194 235° Southwest 448 516 34,000  Level Albuquerque Center
Fri 10:01:25 PM 35.2903 -105.7456 235° Southwest 449 517 34,000  Level Albuquerque Center
Fri 10:02:26 PM 35.2183 -105.8733 235° Southwest 451 519 34,000  Level Albuquerque Center
Fri 10:03:27 PM 35.1456 -106.0000 235° Southwest 450 518 34,000  Level Albuquerque Center
Fri 10:04:28 PM 35.0775 -106.1197 235° Southwest 445 512 34,000  Level Albuquerque Center
Fri 10:05:29 PM 35.0042 -106.2447 234° Southwest 449 517 34,000  Level Albuquerque Center
Fri 10:06:31 PM 34.9333 -106.3700 235° Southwest 448 516 34,000  Level Albuquerque Center
Fri 10:07:32 PM 34.8625 -106.4958 236° Southwest 447 514 34,000  Level Albuquerque Center
Fri 10:08:33 PM 34.7886 -106.6200 234° Southwest 447 514 34,000  Level Albuquerque Center
Fri 10:09:34 PM 34.7128 -106.7411 233° Southwest 446 513 34,000  Level Albuquerque Center
Fri 10:10:35 PM 34.6389 -106.8636 234° Southwest 445 512 34,000  Level Albuquerque Center
Fri 10:11:36 PM 34.5703 -106.9911 237° Southwest 450 518 34,000  Level Albuquerque Center
Fri 10:12:38 PM 34.4992 -107.1164 235° Southwest 448 516 34,000  Level Albuquerque Center
Fri 10:13:39 PM 34.4258 -107.2406 234° Southwest 449 517 34,000  Level Albuquerque Center
Fri 10:14:40 PM 34.3517 -107.3650 234° Southwest 452 520 34,000  Level Albuquerque Center
Fri 10:15:41 PM 34.2733 -107.4931 234° Southwest 452 520 34,000  Level Albuquerque Center
Fri 10:16:42 PM 34.2022 -107.6167 235° Southwest 450 518 34,000  Level Albuquerque Center
Fri 10:17:44 PM 34.1292 -107.7397 234° Southwest 452 520 34,000  Level Albuquerque Center
Fri 10:18:45 PM 34.0403 -107.8861 234° Southwest 452 520 34,000  Level Albuquerque Center
Fri 10:19:46 PM 33.9664 -108.0075 234° Southwest 452 520 34,000  Level Albuquerque Center
Fri 10:20:47 PM 33.8933 -108.1294 234° Southwest 450 518 34,000  Level Albuquerque Center
Fri 10:21:49 PM 33.8247 -108.2403 233° Southwest 445 512 34,000  Level Albuquerque Center
Fri 10:22:50 PM 33.7514 -108.3611 234° Southwest 448 516 34,000  Level Albuquerque Center
Fri 10:23:51 PM 33.6767 -108.4803 233° Southwest 450 518 34,000  Level Albuquerque Center
Fri 10:24:52 PM 33.5894 -108.6236 234° Southwest 449 517 34,000  Level Albuquerque Center
Fri 10:25:53 PM 33.5158 -108.7442 234° Southwest 452 520 34,000  Level Albuquerque Center
Fri 10:26:55 PM 33.4422 -108.8642 234° Southwest 453 521 34,000  Level Albuquerque Center
Fri 10:27:56 PM 33.3675 -108.9839 233° Southwest 455 524 34,000 -246 Level Albuquerque Center
Fri 10:28:57 PM 33.2950 -109.1008 233° Southwest 450 518 33,500 -787 Descending Albuquerque Center
Fri 10:29:58 PM 33.2094 -109.2392 234° Southwest 443 510 32,400 -976 Descending Albuquerque Center
Fri 10:31:00 PM 33.1383 -109.3522 233° Southwest 436 502 31,500 -1,171 Descending Albuquerque Center
Fri 10:32:01 PM 33.0664 -109.4650 233° Southwest 434 499 30,000 -1,180 Descending Albuquerque Center
Fri 10:33:02 PM 32.9922 -109.5792 232° Southwest 440 506 29,100 -885 Descending Albuquerque Center
Fri 10:34:03 PM 32.9214 -109.6950 234° Southwest 439 505 28,200 -927 Descending Albuquerque Center
Fri 10:35:05 PM 32.8514 -109.8092 234° Southwest 436 502 27,200 -1,073 Descending Albuquerque Center
Fri 10:36:06 PM 32.7656 -109.9397 232° Southwest 427 491 26,000 -1,230 Descending Albuquerque Center
Fri 10:37:07 PM 32.6983 -110.0494 234° Southwest 418 481 24,700 -1,443 Descending Albuquerque Center
Fri 10:37:25 PM 32.6769 -110.0789 229° Southwest 418 481 24,100 -2,557 Descending Albuquerque Center
Fri 10:38:08 PM 32.6322 -110.1544 235° Southwest 406 467 22,100 -2,630 Descending Albuquerque Center
Fri 10:38:38 PM 32.5936 -110.2086 230° Southwest 402 463 20,900 -2,164 Descending Albuquerque Center
Fri 10:39:09 PM 32.5653 -110.2567 235° Southwest 399 459 19,900 -2,222 Descending Albuquerque Center
Fri 10:39:32 PM 32.5356 -110.3036 233° Southwest 392 451 18,900 -2,164 Descending Albuquerque Center
Fri 10:40:10 PM 32.5044 -110.3556 235° Southwest 387 445 17,700 -2,066 Descending Albuquerque Center
Fri 10:40:33 PM 32.4717 -110.4022 230° Southwest 379 436 16,800 -2,226 Descending Albuquerque Center
Fri 10:41:12 PM 32.4417 -110.4511 234° Southwest 375 432 15,400 -2,800 Descending Albuquerque Center
Fri 10:41:33 PM 32.4108 -110.4950 230° Southwest 362 417 14,000 -2,459 Descending Albuquerque Center
Fri 10:42:13 PM 32.3786 -110.5400 230° Southwest 364 419 12,900 -2,182 Descending Albuquerque Center
Fri 10:42:28 PM 32.3556 -110.5733 231° Southwest 346 398 12,000 -1,475 Descending Albuquerque Center
Fri 10:43:14 PM 32.3331 -110.6331 246° West 346 398 11,400 -561 Descending Albuquerque Center
Fri 10:44:15 PM 32.2833 -110.7528 244° Southwest 343 395 11,000 -600 Descending Albuquerque Center
Fri 10:45:24 PM 32.2856 -110.8475 272° West 252 290 10,100 -885 Descending Albuquerque Center
Fri 10:46:17 PM 32.2925 -110.9161 277° West 246 283 9,200 -1,289 Descending Albuquerque Center
Fri 10:47:25 PM 32.2961 -111.0111 273° West 239 275 7,500 -1,024 Descending Albuquerque Center
Fri 10:48:20 PM 32.2664 -111.0600 234° Southwest 244 281 7,100 -776 Descending Albuquerque Center
Fri 10:49:21 PM 32.2086 -111.0372 162° South 235 270 6,000 -1,377 Descending Albuquerque Center
Fri 10:50:22 PM 32.1703 -111.0008 141° Southeast 200 230 4,300 -984 Descending Albuquerque Center
Fri 10:51:23 PM 32.1650 -110.9586 98° East 186 214 4,000 -295 Descending Albuquerque Center

Login

Don't have an account? Register now (free) for customized features, flight alerts, and more!